Terminal Aerodrome Forecast
Issued by NWS Blacksburg, VA

Current Version | Previous Version | Graphics & Text | Print | Product List | Glossary On
Versions: 1 2 3 4 5 6 7 8 9 10 11 12 13 14 15 16 17 18 19 20 21 22 23 24 25 26 27 28 29 30 31 32
000
FTUS41 KRNK 161139
TAFBLF
TAF
KBLF 161139Z 1612/1712 18007KT 6SM -SHRA SCT015 OVC050
      TEMPO 1612/1615 4SM -SHRA OVC015
     FM161500 22008G16KT P6SM SCT015 BKN045
     FM162000 26009G18KT P6SM OVC025
     FM170000 27011KT P6SM OVC015
     FM170300 28008KT 6SM BR OVC007=

USA.gov is the U.S. government's official web portal to all federal, state and local government web resources and services.